createdAt,value
2017-09-24T00:01:43.595Z,57.67
2017-09-24T00:04:20.597Z,57.07
2017-09-24T00:06:50.132Z,52.47
2017-09-24T00:09:18.370Z,54.40
2017-09-24T00:11:47.111Z,54.40
2017-09-24T00:14:17.038Z,55.93
2017-09-24T00:16:47.346Z,58.13
2017-09-24T00:19:16.305Z,49.90
2017-09-24T00:21:44.647Z,58.47
2017-09-24T00:24:14.316Z,59.30
2017-09-24T00:26:42.540Z,64.83
2017-09-24T00:29:12.178Z,62.10
2017-09-24T00:31:40.339Z,61.03
2017-09-24T00:34:10.035Z,69.63
2017-09-24T00:36:38.966Z,67.30
2017-09-24T00:39:08.599Z,71.40
2017-09-24T00:41:37.202Z,64.23
2017-09-24T00:44:05.495Z,64.93
2017-09-24T00:46:33.791Z,62.90
2017-09-24T00:49:03.477Z,60.13
2017-09-24T00:51:33.723Z,66.67
2017-09-24T00:54:03.282Z,63.30
2017-09-24T00:56:31.494Z,74.90
2017-09-24T00:58:59.782Z,71.17
2017-09-24T01:01:30.496Z,70.70
2017-09-24T01:03:58.839Z,72.33
2017-09-24T01:06:27.899Z,69.90
2017-09-24T01:08:56.195Z,67.77
2017-09-24T01:11:24.831Z,66.80
2017-09-24T01:13:53.167Z,70.57
2017-09-24T01:16:22.608Z,62.23
2017-09-24T01:18:50.970Z,70.67
2017-09-24T01:21:20.040Z,69.30
2017-09-24T01:23:48.330Z,65.00
2017-09-24T01:26:18.166Z,69.37
2017-09-24T01:28:47.811Z,74.63
2017-09-24T01:31:15.966Z,74.30
2017-09-24T01:33:45.088Z,69.33
2017-09-24T01:36:14.143Z,75.33
2017-09-24T01:38:43.219Z,72.40
2017-09-24T01:41:11.820Z,73.03
2017-09-24T01:43:40.876Z,81.67
2017-09-24T01:46:10.515Z,75.03
2017-09-24T01:48:40.087Z,84.30
2017-09-24T01:51:09.776Z,82.20
2017-09-24T01:53:38.827Z,88.60
2017-09-24T01:56:08.867Z,80.60
2017-09-24T01:58:38.502Z,78.57
2017-09-24T02:01:06.682Z,76.27
2017-09-24T02:03:35.008Z,81.73
2017-09-24T02:06:03.297Z,83.47
2017-09-24T02:08:31.600Z,71.80
2017-09-24T02:11:00.722Z,75.47
2017-09-24T02:13:30.362Z,77.97
2017-09-24T02:15:58.537Z,80.57
2017-09-24T02:18:28.377Z,78.10
2017-09-24T02:20:58.017Z,75.23
2017-09-24T02:23:26.189Z,76.63
2017-09-24T02:25:56.138Z,76.13
2017-09-24T02:28:24.303Z,74.17
2017-09-24T02:30:54.105Z,73.77
2017-09-24T02:33:22.718Z,78.37
2017-09-24T02:35:52.529Z,79.73
2017-09-24T02:38:20.848Z,75.30
2017-09-24T02:40:50.923Z,78.20
2017-09-24T02:43:19.209Z,81.07
2017-09-24T02:45:47.812Z,79.47
2017-09-24T02:48:17.303Z,75.40
2017-09-24T02:50:46.351Z,78.33
2017-09-24T02:53:14.640Z,74.77
2017-09-24T02:55:43.753Z,74.87
2017-09-24T02:58:12.032Z,70.00
2017-09-24T03:00:41.105Z,73.83
2017-09-24T03:03:09.823Z,63.47
2017-09-24T03:05:39.275Z,73.23
2017-09-24T03:08:07.555Z,76.27
2017-09-24T03:10:36.342Z,66.37
2017-09-24T03:13:05.995Z,67.50
2017-09-24T03:15:34.159Z,68.03
2017-09-24T03:18:02.518Z,67.10
2017-09-24T03:20:30.810Z,70.30
2017-09-24T03:23:00.234Z,66.03
2017-09-24T03:25:28.578Z,67.87
2017-09-24T03:27:58.221Z,62.20
2017-09-24T03:30:27.540Z,70.17
2017-09-24T03:32:56.644Z,69.97
2017-09-24T03:35:25.326Z,66.73
2017-09-24T03:37:53.611Z,75.17
2017-09-24T03:40:21.986Z,62.37
2017-09-24T03:42:50.274Z,72.03
2017-09-24T03:45:20.076Z,74.43
2017-09-24T03:47:49.270Z,67.70
2017-09-24T03:50:17.570Z,72.20
2017-09-24T03:52:45.859Z,89.93
2017-09-24T03:55:15.752Z,76.07
2017-09-24T03:57:44.048Z,69.30
2017-09-24T04:00:12.726Z,78.00
2017-09-24T04:02:41.854Z,83.90
2017-09-24T04:05:10.141Z,77.77
2017-09-24T04:07:38.441Z,81.77
2017-09-24T04:10:06.791Z,74.23
2017-09-24T04:12:36.472Z,73.50
2017-09-24T04:15:04.641Z,73.57
2017-09-24T04:17:33.395Z,71.13
2017-09-24T04:20:01.689Z,71.40
2017-09-24T04:22:30.744Z,74.97
2017-09-24T04:25:00.199Z,72.50
2017-09-24T04:27:28.899Z,70.90
2017-09-24T04:29:57.187Z,65.33
2017-09-24T04:32:26.887Z,69.37
2017-09-24T04:34:55.822Z,74.07
2017-09-24T04:37:24.122Z,66.97
2017-09-24T04:39:52.459Z,69.10
2017-09-24T04:42:20.766Z,63.03
2017-09-24T04:44:49.818Z,63.30
2017-09-24T04:47:19.319Z,63.33
2017-09-24T04:49:48.751Z,73.00
2017-09-24T04:52:17.444Z,74.17
2017-09-24T04:54:46.948Z,67.20
2017-09-24T04:57:16.596Z,71.23
2017-09-24T04:59:45.165Z,69.87
2017-09-24T05:02:14.635Z,73.10
2017-09-24T05:04:42.922Z,65.93
2017-09-24T05:07:12.726Z,61.80
2017-09-24T05:09:42.358Z,60.07
2017-09-24T05:12:11.052Z,61.40
2017-09-24T05:14:39.336Z,66.37
2017-09-24T05:17:07.943Z,54.60
2017-09-24T05:19:37.367Z,60.00
2017-09-24T05:22:05.668Z,64.40
2017-09-24T05:24:34.003Z,70.57
2017-09-24T05:27:02.303Z,58.20
2017-09-24T05:29:30.596Z,60.73
2017-09-24T05:32:00.312Z,61.20
2017-09-24T05:34:28.889Z,64.90
2017-09-24T05:36:57.178Z,57.43
2017-09-24T05:39:26.446Z,61.83
2017-09-24T05:41:55.153Z,62.63
2017-09-24T05:44:23.440Z,64.50
2017-09-24T05:46:52.555Z,75.23
2017-09-24T05:49:20.838Z,66.80
2017-09-24T05:51:49.137Z,73.10
2017-09-24T05:54:18.975Z,66.93
2017-09-24T05:56:47.267Z,71.83
2017-09-24T05:59:15.573Z,78.03
2017-09-24T06:01:43.924Z,78.70
2017-09-24T06:04:13.360Z,75.17
2017-09-24T06:06:41.660Z,76.47
2017-09-24T06:09:10.015Z,78.83
2017-09-24T06:11:38.303Z,67.80
2017-09-24T06:14:07.943Z,66.97
2017-09-24T06:16:36.552Z,62.47
2017-09-24T06:19:04.851Z,57.00
2017-09-24T06:21:33.143Z,74.43
2017-09-24T06:24:02.264Z,67.07
2017-09-24T06:26:31.911Z,78.47
2017-09-24T06:29:00.470Z,72.80
2017-09-24T06:31:29.080Z,60.00
2017-09-24T06:33:58.503Z,59.50
2017-09-24T06:36:26.796Z,63.57
2017-09-24T06:38:55.135Z,61.30
2017-09-24T06:41:23.428Z,66.70
2017-09-24T06:43:51.720Z,65.53
2017-09-24T06:46:20.409Z,66.80
2017-09-24T06:48:49.464Z,66.17
2017-09-24T06:51:17.755Z,65.30
2017-09-24T06:53:46.928Z,72.60
2017-09-24T06:56:16.354Z,61.23
2017-09-24T06:58:44.651Z,69.60
2017-09-24T07:01:13.009Z,69.13
2017-09-24T07:03:42.055Z,62.63
2017-09-24T07:06:10.346Z,70.57
2017-09-24T07:08:40.494Z,73.13
2017-09-24T07:11:09.558Z,68.27
2017-09-24T07:13:38.247Z,58.07
2017-09-24T07:16:06.585Z,64.57
2017-09-24T07:18:36.232Z,70.83
2017-09-24T07:21:04.792Z,57.87
2017-09-24T07:23:33.914Z,62.23
2017-09-24T07:26:03.561Z,65.83
2017-09-24T07:28:33.235Z,67.87
2017-09-24T07:31:01.591Z,67.77
2017-09-24T07:33:31.391Z,71.20
2017-09-24T07:36:00.448Z,62.33
2017-09-24T07:38:30.223Z,62.00
2017-09-24T07:40:58.514Z,61.77
2017-09-24T07:43:27.563Z,65.87
2017-09-24T07:45:56.189Z,61.40
2017-09-24T07:48:24.867Z,74.50
2017-09-24T07:50:53.159Z,64.43
2017-09-24T07:53:22.607Z,69.37
2017-09-24T07:55:50.883Z,61.27
2017-09-24T07:58:19.183Z,66.90
2017-09-24T08:00:49.032Z,65.30
2017-09-24T08:03:17.323Z,69.97
2017-09-24T08:05:45.623Z,67.23
2017-09-24T08:08:13.976Z,60.43
2017-09-24T08:10:43.035Z,66.90
2017-09-24T08:13:11.342Z,58.40
2017-09-24T08:15:43.116Z,53.93
2017-09-24T08:18:12.918Z,50.63
2017-09-24T08:20:41.206Z,59.17
2017-09-24T08:23:11.340Z,64.27
2017-09-24T08:25:40.400Z,65.97
2017-09-24T08:28:10.059Z,62.17
2017-09-24T08:30:39.302Z,66.10
2017-09-24T08:33:07.978Z,59.70
2017-09-24T08:35:37.619Z,59.80
2017-09-24T08:38:07.240Z,58.93
2017-09-24T08:40:36.874Z,62.50
2017-09-24T08:43:06.174Z,60.33
2017-09-24T08:45:34.512Z,62.20
2017-09-24T08:48:03.554Z,69.63
2017-09-24T08:50:31.858Z,63.37
2017-09-24T08:53:00.954Z,62.43
2017-09-24T08:55:29.253Z,65.00
2017-09-24T08:57:57.546Z,62.47
2017-09-24T09:00:27.227Z,60.90
2017-09-24T09:02:56.155Z,59.10
2017-09-24T09:05:24.443Z,69.53
2017-09-24T09:07:52.911Z,59.90
2017-09-24T09:10:21.587Z,65.57
2017-09-24T09:12:51.015Z,66.33
2017-09-24T09:15:20.019Z,62.07
2017-09-24T09:17:49.070Z,61.40
2017-09-24T09:20:17.362Z,62.73
2017-09-24T09:22:46.842Z,60.07
2017-09-24T09:25:15.136Z,65.23
2017-09-24T09:27:45.259Z,60.03
2017-09-24T09:30:13.598Z,57.47
2017-09-24T09:32:43.571Z,59.90
2017-09-24T09:35:14.383Z,56.97
2017-09-24T09:37:43.072Z,56.40
2017-09-24T09:40:11.362Z,57.37
2017-09-24T09:42:40.479Z,57.73
2017-09-24T09:45:26.810Z,59.00
2017-09-24T09:47:55.581Z,58.57
2017-09-24T09:50:25.377Z,55.73
2017-09-24T09:52:53.665Z,56.70
2017-09-24T09:55:22.027Z,54.07
2017-09-24T09:57:51.808Z,55.83
2017-09-24T10:00:21.478Z,52.63
2017-09-24T10:02:50.427Z,56.63
2017-09-24T10:05:20.221Z,54.23
2017-09-24T10:08:01.947Z,50.07
2017-09-24T10:10:30.236Z,50.97
2017-09-24T10:12:58.940Z,51.17
2017-09-24T10:15:29.435Z,46.10
2017-09-24T10:18:01.340Z,52.07
2017-09-24T10:20:30.055Z,45.00
2017-09-24T10:22:59.810Z,48.30
2017-09-24T10:25:28.102Z,49.37
2017-09-24T10:27:56.397Z,43.53
2017-09-24T10:30:32.344Z,44.23
2017-09-24T10:33:01.268Z,48.30
2017-09-24T10:35:30.328Z,49.07
2017-09-24T10:37:59.064Z,47.27
2017-09-24T10:40:27.747Z,43.80
2017-09-24T10:42:56.039Z,43.37
2017-09-24T10:45:27.112Z,44.00
2017-09-24T10:47:56.759Z,40.90
2017-09-24T10:50:26.067Z,32.93
2017-09-24T10:52:54.412Z,30.20
2017-09-24T10:55:22.710Z,31.13
2017-09-24T10:57:52.351Z,31.80
2017-09-24T11:00:20.831Z,30.07
2017-09-24T11:02:49.116Z,35.00
2017-09-24T11:05:17.397Z,35.07
2017-09-24T11:07:47.449Z,38.33
2017-09-24T11:10:15.603Z,34.33
2017-09-24T11:12:43.896Z,29.30
2017-09-24T11:15:12.251Z,30.43
2017-09-24T11:17:40.544Z,28.77
2017-09-24T11:20:09.597Z,29.07
2017-09-24T11:22:39.750Z,32.73
2017-09-24T11:25:07.912Z,35.37
2017-09-24T11:27:36.198Z,36.67
2017-09-24T11:30:05.232Z,33.10
2017-09-24T11:32:34.870Z,38.77
2017-09-24T11:35:04.530Z,36.27
2017-09-24T11:37:33.193Z,32.90
2017-09-24T11:40:02.627Z,30.63
2017-09-24T11:42:32.263Z,28.80
2017-09-24T11:45:01.827Z,28.20
2017-09-24T11:47:31.114Z,29.43
2017-09-24T11:50:00.179Z,28.63
2017-09-24T11:52:29.950Z,31.83
2017-09-24T11:54:59.462Z,27.40
2017-09-24T11:57:28.024Z,30.77
2017-09-24T11:59:56.694Z,31.70
2017-09-24T12:02:25.379Z,29.70
2017-09-24T12:04:53.665Z,28.70
2017-09-24T12:07:23.499Z,25.30
2017-09-24T12:09:53.133Z,21.70
2017-09-24T12:12:21.691Z,28.23
2017-09-24T12:14:50.034Z,25.70
2017-09-24T12:17:18.323Z,24.87
2017-09-24T12:19:47.962Z,21.67
2017-09-24T12:22:19.342Z,22.83
2017-09-24T12:24:48.767Z,20.57
2017-09-24T12:27:17.059Z,23.20
2017-09-24T12:29:45.391Z,24.80
2017-09-24T12:32:13.712Z,25.60
2017-09-24T12:34:42.762Z,25.77
2017-09-24T12:37:12.239Z,25.13
2017-09-24T12:39:40.929Z,26.40
2017-09-24T12:42:09.227Z,26.20
2017-09-24T12:44:37.568Z,22.37
2017-09-24T12:47:05.850Z,23.73
2017-09-24T12:49:34.149Z,25.67
2017-09-24T12:52:03.854Z,29.00
2017-09-24T12:54:32.047Z,28.50
2017-09-24T12:57:00.324Z,30.97
2017-09-24T12:59:28.663Z,28.47
2017-09-24T13:01:56.956Z,29.37
2017-09-24T13:04:25.247Z,28.23
2017-09-24T13:06:55.099Z,25.60
2017-09-24T13:09:23.389Z,27.30
2017-09-24T13:11:51.687Z,29.20
2017-09-24T13:14:21.557Z,28.13
2017-09-24T13:16:49.842Z,25.70
2017-09-24T13:19:18.899Z,23.23
2017-09-24T13:21:48.275Z,29.50
2017-09-24T13:24:16.963Z,28.40
2017-09-24T13:26:45.263Z,27.00
2017-09-24T13:29:13.622Z,26.40
2017-09-24T13:31:41.922Z,25.90
2017-09-24T13:34:10.210Z,29.93
2017-09-24T13:36:38.905Z,27.80
2017-09-24T13:39:07.592Z,27.43
2017-09-24T13:41:35.879Z,27.47
2017-09-24T13:44:04.611Z,27.50
2017-09-24T13:46:34.412Z,25.93
2017-09-24T13:49:02.731Z,27.83
2017-09-24T13:51:31.072Z,26.53
2017-09-24T13:53:59.361Z,29.60
2017-09-24T13:56:27.650Z,27.13
2017-09-24T13:58:56.831Z,23.27
2017-09-24T14:01:25.882Z,26.70
2017-09-24T14:03:55.315Z,28.10
2017-09-24T14:06:23.663Z,26.20
2017-09-24T14:08:53.307Z,23.87
2017-09-24T14:11:21.481Z,21.47
2017-09-24T14:13:49.822Z,22.37
2017-09-24T14:16:19.247Z,25.47
2017-09-24T14:18:47.535Z,26.10
2017-09-24T14:21:16.641Z,22.60
2017-09-24T14:23:45.709Z,23.67
2017-09-24T14:26:13.998Z,28.20
2017-09-24T14:28:42.480Z,27.87
2017-09-24T14:31:10.771Z,27.33
2017-09-24T14:33:40.571Z,27.37
2017-09-24T14:36:10.620Z,25.53
2017-09-24T14:38:39.195Z,26.83
2017-09-24T14:41:07.485Z,22.53
2017-09-24T14:43:36.174Z,24.73
2017-09-24T14:46:05.226Z,25.93
2017-09-24T14:48:34.659Z,29.57
2017-09-24T14:51:02.995Z,30.77
2017-09-24T14:53:32.629Z,34.60
2017-09-24T14:56:01.200Z,32.57
2017-09-24T14:58:29.526Z,28.00
2017-09-24T15:00:58.589Z,29.13
2017-09-24T15:03:28.227Z,28.63
2017-09-24T15:05:58.231Z,32.90
2017-09-24T15:08:26.532Z,30.03
2017-09-24T15:10:54.818Z,33.30
2017-09-24T15:13:23.171Z,31.57
2017-09-24T15:15:52.604Z,30.50
2017-09-24T15:18:20.896Z,29.23
2017-09-24T15:20:49.249Z,34.37
2017-09-24T15:23:17.539Z,31.90
2017-09-24T15:25:47.199Z,36.47
2017-09-24T15:28:16.841Z,31.27
2017-09-24T15:30:45.008Z,33.50
2017-09-24T15:33:14.808Z,33.77
2017-09-24T15:35:43.886Z,33.27
2017-09-24T15:38:12.939Z,29.50
2017-09-24T15:40:41.226Z,30.83
2017-09-24T15:43:10.930Z,29.30
2017-09-24T15:45:39.863Z,25.00
2017-09-24T15:48:08.158Z,28.10
2017-09-24T15:50:36.519Z,23.70
2017-09-24T15:53:06.154Z,27.33
2017-09-24T15:55:34.320Z,27.43
2017-09-24T15:58:02.651Z,27.67
2017-09-24T16:00:30.940Z,29.27
2017-09-24T16:02:59.234Z,27.17
2017-09-24T16:05:29.458Z,26.00
2017-09-24T16:07:58.974Z,26.10
2017-09-24T16:10:28.651Z,26.30
2017-09-24T16:12:58.492Z,28.93
2017-09-24T16:15:26.781Z,27.50
2017-09-24T16:17:55.465Z,25.20
2017-09-24T16:20:24.279Z,26.93
2017-09-24T16:22:52.972Z,29.97
2017-09-24T16:25:21.259Z,29.30
2017-09-24T16:27:50.006Z,24.33
2017-09-24T16:30:18.282Z,23.93
2017-09-24T16:32:46.572Z,26.97
2017-09-24T16:35:14.907Z,24.60
2017-09-24T16:37:44.323Z,24.77
2017-09-24T16:40:13.962Z,28.67
2017-09-24T16:42:42.943Z,28.50
2017-09-24T16:45:11.231Z,28.43
2017-09-24T16:47:41.025Z,28.90
2017-09-24T16:50:11.211Z,26.57
2017-09-24T16:52:40.723Z,26.60
2017-09-24T16:55:08.890Z,26.70
2017-09-24T16:57:38.378Z,26.67
2017-09-24T17:00:06.672Z,29.63
2017-09-24T17:02:35.729Z,26.73
2017-09-24T17:05:04.419Z,26.57
2017-09-24T17:07:33.106Z,27.13
2017-09-24T17:10:01.404Z,27.13
2017-09-24T17:12:29.747Z,26.80
2017-09-24T17:14:58.039Z,25.80
2017-09-24T17:17:26.335Z,27.00
2017-09-24T17:19:56.022Z,26.10
2017-09-24T17:22:24.575Z,24.80
2017-09-24T17:24:52.867Z,25.03
2017-09-24T17:27:22.079Z,24.00
2017-09-24T17:29:50.379Z,25.57
2017-09-24T17:32:20.451Z,22.43
2017-09-24T17:34:48.809Z,25.30
2017-09-24T17:37:18.610Z,24.47
2017-09-24T17:39:46.894Z,25.60
2017-09-24T17:42:15.608Z,25.40
2017-09-24T17:44:44.671Z,26.13
2017-09-24T17:47:12.966Z,23.87
2017-09-24T17:49:41.308Z,23.13
2017-09-24T17:52:10.363Z,25.27
2017-09-24T17:54:39.420Z,25.07
2017-09-24T17:57:08.149Z,26.13
2017-09-24T17:59:36.449Z,25.27
2017-09-24T18:02:04.747Z,25.33
2017-09-24T18:04:33.475Z,24.97
2017-09-24T18:07:01.764Z,25.27
2017-09-24T18:09:31.410Z,25.73
2017-09-24T18:12:00.394Z,23.63
2017-09-24T18:14:28.692Z,25.43
2017-09-24T18:16:58.119Z,26.90
2017-09-24T18:19:27.215Z,25.80
2017-09-24T18:21:55.515Z,27.00
2017-09-24T18:24:24.567Z,27.70
2017-09-24T18:26:53.220Z,27.07
2017-09-24T18:29:21.510Z,25.27
2017-09-24T18:31:49.800Z,25.17
2017-09-24T18:34:18.148Z,29.20
2017-09-24T18:36:47.579Z,27.50
2017-09-24T18:39:17.239Z,28.97
2017-09-24T18:41:45.869Z,28.20
2017-09-24T18:44:14.555Z,30.40
2017-09-24T18:46:43.615Z,28.67
2017-09-24T18:49:12.720Z,27.10
2017-09-24T18:51:41.776Z,29.47
2017-09-24T18:54:10.063Z,28.67
2017-09-24T18:56:38.389Z,29.03
2017-09-24T18:59:06.679Z,29.00
2017-09-24T19:01:36.115Z,30.20
2017-09-24T19:04:04.451Z,26.40
2017-09-24T19:06:32.735Z,28.93
2017-09-24T19:09:01.041Z,28.67
2017-09-24T19:11:29.365Z,26.53
2017-09-24T19:13:58.802Z,28.03
2017-09-24T19:16:28.437Z,28.10
2017-09-24T19:18:57.436Z,26.87
2017-09-24T19:21:26.521Z,29.87
2017-09-24T19:23:56.183Z,26.83
2017-09-24T19:26:24.651Z,28.00
2017-09-24T19:28:54.451Z,26.50
2017-09-24T19:31:24.121Z,28.93
2017-09-24T19:33:53.831Z,26.10
2017-09-24T19:36:22.119Z,26.67
2017-09-24T19:38:51.750Z,25.10
2017-09-24T19:41:19.963Z,24.33
2017-09-24T19:43:48.255Z,21.27
2017-09-24T19:46:16.544Z,23.00
2017-09-24T19:48:45.156Z,21.53
2017-09-24T19:51:13.439Z,21.67
2017-09-24T19:53:42.497Z,21.17
2017-09-24T19:56:11.611Z,21.13
2017-09-24T19:58:39.906Z,19.10
2017-09-24T20:01:09.391Z,18.77
2017-09-24T20:03:37.829Z,19.57
2017-09-24T20:06:06.132Z,20.13
2017-09-24T20:08:35.771Z,21.03
2017-09-24T20:11:05.337Z,19.20
2017-09-24T20:13:33.503Z,18.33
2017-09-24T20:16:02.930Z,19.53
2017-09-24T20:18:31.258Z,18.60
2017-09-24T20:21:00.313Z,18.20
2017-09-24T20:23:28.611Z,18.47
2017-09-24T20:25:58.307Z,19.87
2017-09-24T20:28:26.467Z,19.20
2017-09-24T20:30:54.763Z,19.70
2017-09-24T20:33:23.379Z,18.83
2017-09-24T20:35:52.432Z,18.70
2017-09-24T20:38:20.725Z,17.40
2017-09-24T20:40:49.832Z,18.17
2017-09-24T20:43:19.470Z,17.67
2017-09-24T20:45:47.631Z,19.57
2017-09-24T20:48:15.975Z,17.73
2017-09-24T20:50:45.031Z,19.23
2017-09-24T20:53:13.322Z,17.77
2017-09-24T20:55:41.659Z,18.73
2017-09-24T20:58:10.735Z,19.83
2017-09-24T21:00:40.183Z,18.53
2017-09-24T21:03:09.290Z,17.13
2017-09-24T21:05:37.976Z,17.07
2017-09-24T21:08:06.269Z,18.40
2017-09-24T21:10:34.604Z,17.30
2017-09-24T21:13:02.898Z,18.20
2017-09-24T21:15:31.187Z,19.43
2017-09-24T21:18:00.660Z,18.20
2017-09-24T21:20:28.962Z,17.10
2017-09-24T21:22:57.275Z,18.77
2017-09-24T21:25:25.616Z,18.20
2017-09-24T21:27:53.902Z,16.97
2017-09-24T21:30:24.220Z,18.73
2017-09-24T21:32:53.328Z,18.03
2017-09-24T21:35:22.023Z,17.63
2017-09-24T21:37:50.311Z,17.63
2017-09-24T21:40:20.845Z,18.23
2017-09-24T21:42:49.528Z,19.27
2017-09-24T21:45:17.817Z,19.43
2017-09-24T21:47:46.171Z,18.60
2017-09-24T21:50:15.602Z,20.77
2017-09-24T21:52:43.900Z,20.33
2017-09-24T21:55:13.021Z,19.23
2017-09-24T21:57:42.069Z,18.07
2017-09-24T22:00:11.118Z,17.87
2017-09-24T22:02:40.598Z,17.90
2017-09-24T22:05:08.888Z,19.37
2017-09-24T22:07:38.523Z,18.23
2017-09-24T22:10:07.783Z,20.70
2017-09-24T22:12:36.839Z,22.37
2017-09-24T22:15:05.896Z,20.03
2017-09-24T22:17:35.375Z,20.97
2017-09-24T22:20:04.959Z,22.57
2017-09-24T22:22:33.258Z,23.90
2017-09-24T22:25:01.591Z,22.50
2017-09-24T22:27:29.874Z,22.47
2017-09-24T22:29:58.171Z,23.37
2017-09-24T22:32:27.631Z,26.13
2017-09-24T22:34:56.316Z,23.93
2017-09-24T22:37:24.608Z,24.03
2017-09-24T22:39:52.956Z,25.40
2017-09-24T22:42:22.374Z,23.97
2017-09-24T22:44:50.667Z,24.00
2017-09-24T22:47:19.052Z,23.40
2017-09-24T22:49:47.335Z,26.17
2017-09-24T22:52:17.122Z,24.20
2017-09-24T22:54:47.084Z,24.20
2017-09-24T22:57:16.383Z,23.80
2017-09-24T22:59:45.067Z,25.20
2017-09-24T23:02:13.682Z,23.93
2017-09-24T23:04:43.318Z,23.93
2017-09-24T23:07:11.488Z,25.00
2017-09-24T23:09:40.179Z,23.57
2017-09-24T23:12:09.228Z,24.40
2017-09-24T23:14:37.519Z,24.40
2017-09-24T23:17:06.640Z,23.00
2017-09-24T23:19:34.923Z,25.07
2017-09-24T23:22:03.974Z,22.07
2017-09-24T23:24:32.331Z,24.07
2017-09-24T23:27:00.620Z,25.60
2017-09-24T23:29:28.909Z,25.80
2017-09-24T23:31:57.270Z,25.03
2017-09-24T23:34:25.560Z,24.90
2017-09-24T23:36:54.615Z,23.57
2017-09-24T23:39:23.722Z,23.97
2017-09-24T23:41:52.778Z,24.67
2017-09-24T23:44:21.055Z,22.37
2017-09-24T23:46:50.965Z,24.60
2017-09-24T23:49:19.264Z,25.10
2017-09-24T23:51:47.561Z,24.33
2017-09-24T23:54:15.907Z,24.60
2017-09-24T23:56:44.203Z,25.17
2017-09-24T23:59:13.838Z,26.60
